Portada
METAR-TAF:

METAR-TAF

Aeropuertos :

Skövde, Suecia

latitud: 58-27N, longitud: 013-58E, altitud: 98 m

Observación

El informe se hizo hace 28 minutos, a las 10:20 UTC
Viento 5 kt del sur
Temperatura 0°C
Humedad 93%
Presión 1013 hPa
Visibilidad: 8000 m
neblina

METAR: ESGR 211020Z AUTO 17005KT 8000 BR SCT009/// M00/M01 Q1013

Hora: 11:48 (10:48 UTC)


TAF: falta

Observaciones y pronósticos meteorológicos de más de 4000 aeropuertos (mensajes METAR y TAF).

Los puntos amarillos y rojos representan las estaciones disponibles.

Ponga el ratón en el punto deseado para ver el nombre de la estación.

Haga clic para ver las observaciones y los pronósticos meteorológicos.

Para cambiar el mapa : haga clic en los botones verdes con una cruz de color negro para hacer un zoom, en el botón verde con un guión para alejar o en las flechas verdes para mapas adyacentes.


METAR-TAF: